Hovedside
METAR-TAF:

METAR-TAF

Lufthavner :

Liepāja internasjonale lufthavn

Liepāja, Latvia

breddegrad: 56-31N, lengdegrad: 021-05E, høyde over havet: 5 m

Gjeldene værobservasjon

Denne rapporten ble laget for 37 minutter siden, klokken 14:50 UTC
Vind 6 kt fra Nord-nordvest
Temperatur 22°C
Luftfuktighet 60%
Trykk 1017 hPa
Sikt 10 km eller mer
ingen skyer under 1500 m og ingen bygeskyer

METAR: EVLA 241450Z AUTO 33006KT CAVOK 22/14 Q1017

Tid: 18:27 (15:27 UTC)

Varsel

Denne rapporten ble laget for 1 time og 22 minutter siden, klokken 14:05 UTC
Varsel gyldig fra 24. klokken 15 UTC til 25. klokken 15 UTC
Vind 7 kt fra Nord-nordvest
Sikt 10 km eller mer
ingen skyer under 1500 m og ingen bygeskyer
Midlertidig
fra 24. klokken 22 UTC til 25. klokken 03 UTC
Sikt: 0600 m
Brutte skyer i en høyde av 200 ft
tåke,

TAF: EVLA 241405Z 2415/2515 33007KT CAVOK TEMPO 2422/2503 0600 FG BKN002

Værobservasjoner og værvarsel for over 4000 flyplasser (METAR- og TAF-rapporter).

Tilgjengelige stasjoner er representert av de røde og gule prikkene på kartet.

Hold musepekeren over prikken for å se navnet på stasjonen.

Klikk så for å se værobservasjoner og -varsler.

For å forandre kartet kan du klikke på den grønne knappen med svart kryss for å zoome inn, på den grønne knappen med strek for å zoome ut, eller på de grønne pilene for å se tilstøtende kart.


METAR-TAF: